createdAt,value
2019-04-25T00:00:01.999Z,98.14
2019-04-25T00:05:03.035Z,98.35
2019-04-25T00:10:01.656Z,98.35
2019-04-25T00:15:01.857Z,95.67
2019-04-25T00:20:02.006Z,98.97
2019-04-25T00:25:14.705Z,98.33
2019-04-25T00:30:01.801Z,96.31
2019-04-25T00:35:02.132Z,96.5
2019-04-25T00:40:01.632Z,96.26
2019-04-25T00:45:02.353Z,96.15
2019-04-25T00:50:02.339Z,98.89
2019-04-25T00:55:02.056Z,95.77
2019-04-25T01:00:01.872Z,97.98
2019-04-25T01:05:01.854Z,98.31
2019-04-25T01:10:02.434Z,97.89
2019-04-25T01:15:01.987Z,97.77
2019-04-25T01:20:01.308Z,97.64
2019-04-25T01:25:01.721Z,97.25
2019-04-25T01:30:02.131Z,97.32
2019-04-25T01:35:01.250Z,96.76
2019-04-25T01:40:01.371Z,96.22
2019-04-25T01:45:01.497Z,96.04
2019-04-25T01:50:01.685Z,95.8
2019-04-25T01:55:03.517Z,95.67
2019-04-25T02:00:01.944Z,95.63
2019-04-25T02:05:01.734Z,95.83
2019-04-25T02:10:03.631Z,95.51
2019-04-25T02:15:03.943Z,95.5
2019-04-25T02:20:02.095Z,95.55
2019-04-25T02:25:01.243Z,95.74
2019-04-25T02:30:01.436Z,95.86
2019-04-25T02:35:07.900Z,95.63
2019-04-25T02:40:03.903Z,95.7
2019-04-25T02:45:03.166Z,95.45
2019-04-25T02:50:03.480Z,95.4
2019-04-25T02:55:02.202Z,95.67
2019-04-25T03:00:02.708Z,95.6
2019-04-25T03:05:03.988Z,95.25
2019-04-25T03:10:02.042Z,94.85
2019-04-25T03:15:02.083Z,94.76
2019-04-25T03:20:06.627Z,94.53
2019-04-25T03:25:02.229Z,94.7
2019-04-25T03:30:02.040Z,94.7
2019-04-25T03:35:01.327Z,94.8
2019-04-25T03:40:02.650Z,94.64
2019-04-25T03:45:01.592Z,95.06
2019-04-25T03:50:02.770Z,94.87
2019-04-25T03:55:02.242Z,94.54
2019-04-25T04:00:03.603Z,94.3
2019-04-25T04:05:01.418Z,93.58
2019-04-25T04:10:03.541Z,92.87
2019-04-25T04:15:01.666Z,92.28
2019-04-25T04:20:01.796Z,91.53
2019-04-25T04:25:03.671Z,91.35
2019-04-25T04:30:01.937Z,91.66
2019-04-25T04:35:03.487Z,91.72
2019-04-25T04:40:03.418Z,90.91
2019-04-25T04:45:03.548Z,90.98
2019-04-25T04:50:01.787Z,90.65
2019-04-25T04:55:06.313Z,89.65
2019-04-25T05:00:01.383Z,88.94
2019-04-25T05:05:01.551Z,87.72
2019-04-25T05:10:03.215Z,87.04
2019-04-25T05:15:01.483Z,87.34
2019-04-25T05:20:03.444Z,87.51
2019-04-25T05:25:01.610Z,88.17
2019-04-25T05:30:01.787Z,88.19
2019-04-25T05:35:03.392Z,88.67
2019-04-25T05:40:01.557Z,87.68
2019-04-25T05:45:01.684Z,86.82
2019-04-25T05:50:01.862Z,86.12
2019-04-25T05:55:01.988Z,85.22
2019-04-25T06:00:03.639Z,84.84
2019-04-25T06:05:03.511Z,84.27
2019-04-25T06:09:24.033Z,83.04
2019-04-25T06:10:01.717Z,83.04
2019-04-25T06:15:02.994Z,81.76
2019-04-25T06:16:15.135Z,80.83
2019-04-25T06:16:50.519Z,80.83
2019-04-25T06:17:30.110Z,80.89
2019-04-25T06:21:43.567Z,80.32
2019-04-25T06:25:01.683Z,79.99
2019-04-25T06:25:01.755Z,79.99
2019-04-25T06:25:01.834Z,79.99
2019-04-25T06:25:01.914Z,79.99
2019-04-25T06:25:02.028Z,79.99
2019-04-25T06:25:02.124Z,79.99
2019-04-25T06:25:34.272Z,79.79
2019-04-25T06:26:48.893Z,79.51
2019-04-25T06:27:03.842Z,79.51
2019-04-25T06:30:01.649Z,79.12
2019-04-25T06:35:01.806Z,79.97
2019-04-25T06:40:03.445Z,79.42
2019-04-25T06:45:01.183Z,79.74
2019-04-25T06:46:43.985Z,79.63
2019-04-25T06:47:10.720Z,79.63
2019-04-25T06:50:01.356Z,79.96
2019-04-25T06:51:34.384Z,79.8
2019-04-25T06:51:44.050Z,79.8
2019-04-25T06:51:55.855Z,79.74
2019-04-25T06:51:59.792Z,79.74
2019-04-25T06:55:03.303Z,79.45
2019-04-25T07:00:01.507Z,79.43
2019-04-25T07:00:09.082Z,79.43
2019-04-25T07:05:01.627Z,79.28
2019-04-25T07:10:03.516Z,79.34
2019-04-25T07:15:01.744Z,78.44
2019-04-25T07:20:01.914Z,77.35
2019-04-25T07:25:03.561Z,77.07
2019-04-25T07:30:01.768Z,76.69
2019-04-25T07:35:03.475Z,75.36
2019-04-25T07:40:01.848Z,75.08
2019-04-25T07:45:01.998Z,76.23
2019-04-25T07:50:01.158Z,76.63
2019-04-25T07:55:01.300Z,76.53
2019-04-25T08:00:03.237Z,76.84
2019-04-25T08:05:01.833Z,76
2019-04-25T08:10:01.964Z,75.16
2019-04-25T08:15:03.917Z,74.26
2019-04-25T08:20:01.270Z,75.07
2019-04-25T08:25:01.400Z,72.04
2019-04-25T08:30:01.502Z,71.73
2019-04-25T08:35:01.643Z,72.01
2019-04-25T08:40:01.827Z,72.25
2019-04-25T08:45:03.654Z,69.57
2019-04-25T08:50:03.529Z,66.42
2019-04-25T08:55:01.824Z,65.48
2019-04-25T09:00:01.949Z,65.22
2019-04-25T09:05:02.052Z,63.17
2019-04-25T09:10:03.657Z,64.31
2019-04-25T09:15:01.807Z,64.06
2019-04-25T09:20:02.007Z,64.96
2019-04-25T09:25:01.154Z,64.66
2019-04-25T09:30:01.287Z,63.84
2019-04-25T09:35:01.427Z,63.95
2019-04-25T09:40:01.606Z,64.31
2019-04-25T09:45:03.644Z,64.62
2019-04-25T09:50:01.896Z,64.56
2019-04-25T09:55:03.406Z,64.42
2019-04-25T10:00:03.518Z,63.78
2019-04-25T10:05:01.822Z,61.31
2019-04-25T10:10:03.649Z,60.34
2019-04-25T10:15:01.909Z,58.1
2019-04-25T10:20:02.070Z,56.19
2019-04-25T10:25:01.225Z,55.89
2019-04-25T10:30:14.578Z,56.92
2019-04-25T10:35:01.639Z,56.05
2019-04-25T10:40:01.794Z,56.04
2019-04-25T10:45:04.044Z,56.69
2019-04-25T10:50:01.336Z,56.93
2019-04-25T10:55:01.469Z,56.9
2019-04-25T11:00:07.524Z,56.18
2019-04-25T11:05:03.403Z,56.37
2019-04-25T11:10:03.434Z,54.87
2019-04-25T11:15:01.747Z,55.07
2019-04-25T11:20:03.653Z,54.42
2019-04-25T11:25:01.598Z,54.05
2019-04-25T11:30:10.477Z,54.7
2019-04-25T11:35:01.387Z,54.61
2019-04-25T11:40:01.577Z,54.43
2019-04-25T11:45:02.638Z,54.31
2019-04-25T11:50:01.172Z,53.82
2019-04-25T11:55:01.326Z,54.04
2019-04-25T12:00:01.503Z,53.3
2019-04-25T12:05:01.664Z,54.47
2019-04-25T12:10:03.614Z,54.72
2019-04-25T12:15:01.927Z,54.72
2019-04-25T12:20:03.738Z,54.23
2019-04-25T12:25:01.949Z,53.89
2019-04-25T12:30:03.863Z,52.99
2019-04-25T12:35:01.525Z,52.25
2019-04-25T12:40:04.061Z,52.36
2019-04-25T12:45:01.507Z,52.31
2019-04-25T12:50:01.624Z,52.38
2019-04-25T12:55:01.995Z,50.64
2019-04-25T13:00:01.705Z,49.9
2019-04-25T13:05:01.845Z,49.79
2019-04-25T13:10:01.952Z,50.47
2019-04-25T13:15:02.137Z,50.57
2019-04-25T13:20:01.708Z,49.35
2019-04-25T13:25:03.172Z,49.14
2019-04-25T13:30:01.453Z,47.57
2019-04-25T13:35:03.214Z,47.05
2019-04-25T13:40:01.976Z,46.91
2019-04-25T13:45:03.135Z,46.65
2019-04-25T13:50:01.694Z,46.5
2019-04-25T13:55:03.687Z,47.31
2019-04-25T14:00:01.940Z,48.31
2019-04-25T14:05:03.576Z,46.66
2019-04-25T14:10:01.306Z,47.83
2019-04-25T14:15:01.506Z,47.35
2019-04-25T14:20:01.606Z,47.55
2019-04-25T14:25:01.706Z,48.11
2019-04-25T14:30:03.747Z,48.74
2019-04-25T14:35:03.416Z,48.66
2019-04-25T14:40:01.629Z,48.98
2019-04-25T14:45:01.767Z,49.74
2019-04-25T14:50:01.934Z,51.36
2019-04-25T14:55:02.056Z,51.16
2019-04-25T15:00:04.434Z,50.66
2019-04-25T15:05:01.796Z,51.25
2019-04-25T15:10:01.895Z,51.6
2019-04-25T15:15:02.017Z,51.58
2019-04-25T15:20:01.158Z,50.42
2019-04-25T15:25:01.292Z,51.14
2019-04-25T15:30:01.438Z,48.9
2019-04-25T15:35:01.640Z,50.29
2019-04-25T15:40:01.745Z,52.4
2019-04-25T15:45:01.886Z,51.51
2019-04-25T15:50:02.030Z,53.04
2019-04-25T15:55:07.266Z,51.99
2019-04-25T16:00:02.023Z,51.96
2019-04-25T16:05:01.197Z,52.8
2019-04-25T16:10:01.334Z,55.27
2019-04-25T16:15:01.523Z,50.91
2019-04-25T16:20:01.663Z,53.86
2019-04-25T16:25:01.761Z,53.65
2019-04-25T16:30:01.898Z,53.43
2019-04-25T16:35:02.118Z,54.09
2019-04-25T16:40:01.261Z,56.4
2019-04-25T16:45:01.389Z,55.82
2019-04-25T16:50:01.526Z,58.54
2019-04-25T16:55:01.771Z,57.66
2019-04-25T17:00:01.914Z,58.62
2019-04-25T17:05:02.063Z,59.01
2019-04-25T17:10:01.181Z,59.53
2019-04-25T17:15:01.368Z,60.09
2019-04-25T17:20:01.487Z,60.92
2019-04-25T17:25:01.626Z,61.58
2019-04-25T17:30:01.755Z,61.91
2019-04-25T17:35:01.970Z,62.3
2019-04-25T17:40:02.103Z,63.57
2019-04-25T17:45:01.195Z,64.34
2019-04-25T17:50:01.317Z,64.15
2019-04-25T17:55:01.475Z,65.42
2019-04-25T18:00:01.608Z,65.93
2019-04-25T18:05:01.736Z,66.45
2019-04-25T18:10:01.865Z,67.44
2019-04-25T18:15:02.004Z,68.48
2019-04-25T18:20:01.149Z,69.23
2019-04-25T18:25:01.282Z,70.37
2019-04-25T18:30:01.378Z,71.27
2019-04-25T18:35:01.583Z,71.05
2019-04-25T18:40:01.711Z,71.75
2019-04-25T18:45:01.843Z,71.82
2019-04-25T18:50:01.960Z,71.98
2019-04-25T18:55:02.146Z,71.72
2019-04-25T19:00:01.242Z,70.9
2019-04-25T19:05:01.353Z,72.46
2019-04-25T19:10:01.450Z,71.61
2019-04-25T19:15:01.638Z,71.99
2019-04-25T19:20:01.799Z,71.22
2019-04-25T19:25:01.898Z,71.48
2019-04-25T19:30:02.029Z,72.43
2019-04-25T19:35:01.201Z,71.97
2019-04-25T19:40:01.327Z,72.11
2019-04-25T19:45:01.469Z,71.17
2019-04-25T19:50:01.641Z,71.01
2019-04-25T19:55:01.791Z,71.5
2019-04-25T20:00:01.931Z,70.67
2019-04-25T20:05:02.071Z,69.28
2019-04-25T20:10:01.243Z,72.4
2019-04-25T20:15:01.654Z,70.12
2019-04-25T20:20:01.795Z,69.9
2019-04-25T20:25:01.890Z,69.06
2019-04-25T20:30:02.034Z,71.56
2019-04-25T20:35:01.262Z,70.02
2019-04-25T20:40:01.394Z,70.16
2019-04-25T20:45:01.564Z,69.68
2019-04-25T20:50:01.696Z,71.39
2019-04-25T20:55:01.919Z,71.3
2019-04-25T21:00:02.053Z,72.48
2019-04-25T21:05:01.206Z,70.36
2019-04-25T21:10:01.338Z,71.11
2019-04-25T21:15:01.496Z,73.01
2019-04-25T21:20:02.877Z,74.65
2019-04-25T21:25:02.375Z,74.31
2019-04-25T21:30:02.352Z,73.75
2019-04-25T21:35:01.580Z,73.24
2019-04-25T21:40:02.888Z,74.06
2019-04-25T21:45:01.189Z,74.14
2019-04-25T21:50:01.338Z,74.62
2019-04-25T21:55:01.822Z,75.41
2019-04-25T22:00:06.132Z,75.23
2019-04-25T22:05:01.207Z,75.88
2019-04-25T22:10:01.963Z,76.25
2019-04-25T22:15:02.104Z,76.18
2019-04-25T22:20:02.240Z,77.15
2019-04-25T22:25:02.605Z,77.64
2019-04-25T22:30:01.831Z,78.08
2019-04-25T22:35:01.760Z,78.51
2019-04-25T22:40:01.945Z,79.03
2019-04-25T22:45:02.069Z,78.79
2019-04-25T22:50:01.849Z,78.71
2019-04-25T22:55:02.209Z,78.74
2019-04-25T23:00:02.344Z,78.32
2019-04-25T23:05:09.163Z,78.08
2019-04-25T23:10:01.963Z,78.08
2019-04-25T23:15:01.212Z,80.77
2019-04-25T23:20:01.346Z,80
2019-04-25T23:25:01.444Z,80.75
2019-04-25T23:30:01.581Z,81.34
2019-04-25T23:35:02.013Z,81.53
2019-04-25T23:40:01.271Z,81.22
2019-04-25T23:45:01.405Z,80.5
2019-04-25T23:50:01.546Z,80.86
2019-04-25T23:55:01.707Z,82.68
